Time;durP1;ratioP1;P1;durP2;ratioP2;P2;SDS_P1;SDS_P2;PMS_P1;PMS_P2;Temp;Humidity;BMP_temperature;BMP_pressure;BME280_temperature;BME280_humidity;BME280_pressure;Samples;Min_cycle;Max_cycle;Signal;HPM_P1;HPM_P2
2022/02/27 00:01:51;;;;;;;4.28;1.33;;;4.50;99.90;;;;;;4998701;28;20062;-62
2022/02/27 00:04:18;;;;;;;3.45;1.10;;;4.50;99.90;;;;;;4998259;28;20054;-62
2022/02/27 00:06:45;;;;;;;3.55;1.40;;;4.50;99.90;;;;;;4995031;28;20474;-63
2022/02/27 00:09:12;;;;;;;3.05;1.15;;;4.50;99.90;;;;;;4997344;28;20141;-62
2022/02/27 00:11:38;;;;;;;3.60;1.38;;;4.50;99.90;;;;;;4994425;28;20108;-61
2022/02/27 00:14:05;;;;;;;3.25;1.27;;;4.50;99.90;;;;;;4992556;28;20165;-61
2022/02/27 00:16:33;;;;;;;4.15;1.58;;;4.50;99.90;;;;;;4996250;28;20045;-61
2022/02/27 00:19:00;;;;;;;4.95;2.45;;;4.50;99.90;;;;;;4998183;28;20049;-62
2022/02/27 00:21:27;;;;;;;3.67;2.20;;;4.40;99.90;;;;;;5002542;28;20081;-62
2022/02/27 00:23:54;;;;;;;3.33;2.13;;;4.40;99.90;;;;;;5003342;28;20411;-61
2022/02/27 00:26:20;;;;;;;3.42;1.65;;;4.40;99.90;;;;;;5002441;28;20134;-62
2022/02/27 00:28:47;;;;;;;3.35;1.77;;;4.40;99.90;;;;;;5000525;28;20776;-61
2022/02/27 00:31:15;;;;;;;3.42;1.60;;;4.40;99.90;;;;;;5002385;28;20066;-62
2022/02/27 00:33:42;;;;;;;2.25;1.45;;;4.40;99.90;;;;;;5002185;28;20182;-62
2022/02/27 00:36:10;;;;;;;3.80;1.58;;;4.40;99.90;;;;;;5001582;28;20153;-61
2022/02/27 00:38:40;;;;;;;2.25;1.20;;;4.40;99.90;;;;;;5002423;28;20136;-61
2022/02/27 00:41:06;;;;;;;3.92;1.42;;;4.40;99.90;;;;;;5001182;28;20113;-61
2022/02/27 00:43:33;;;;;;;2.90;1.30;;;4.40;99.90;;;;;;5001777;28;20077;-61
2022/02/27 00:46:01;;;;;;;3.13;1.50;;;4.30;99.90;;;;;;5001496;28;20128;-62
2022/02/27 00:48:27;;;;;;;2.75;1.45;;;4.40;99.90;;;;;;5002992;28;20104;-61
2022/02/27 00:50:54;;;;;;;3.70;1.60;;;4.30;99.90;;;;;;5002786;28;20125;-61
2022/02/27 00:53:21;;;;;;;4.03;1.50;;;4.30;99.90;;;;;;5003518;28;20056;-61
2022/02/27 00:55:48;;;;;;;3.83;2.10;;;4.30;99.90;;;;;;5003090;28;20465;-62
2022/02/27 00:58:15;;;;;;;2.42;1.80;;;4.30;99.90;;;;;;5003738;28;20588;-62
2022/02/27 01:00:42;;;;;;;5.65;1.80;;;4.30;99.90;;;;;;5002145;28;20045;-62
2022/02/27 01:03:09;;;;;;;2.58;1.60;;;4.40;99.90;;;;;;5002671;28;20081;-61
2022/02/27 01:05:36;;;;;;;3.80;1.67;;;4.30;99.90;;;;;;5002192;28;20049;-62
2022/02/27 01:08:03;;;;;;;6.07;2.13;;;4.30;99.90;;;;;;5003533;28;20498;-62
2022/02/27 01:10:30;;;;;;;4.30;1.70;;;4.30;99.90;;;;;;5002759;28;20142;-61
2022/02/27 01:12:56;;;;;;;2.83;1.50;;;4.30;99.90;;;;;;5002856;28;20104;-62
2022/02/27 01:15:23;;;;;;;4.18;2.40;;;4.30;99.90;;;;;;4999644;28;20159;-60
2022/02/27 01:17:50;;;;;;;3.90;2.28;;;4.30;99.90;;;;;;5003329;28;20128;-61
2022/02/27 01:20:16;;;;;;;4.05;1.80;;;4.30;99.90;;;;;;5001701;28;20078;-61
2022/02/27 01:22:43;;;;;;;3.03;1.83;;;4.30;99.90;;;;;;5002714;28;20108;-60
2022/02/27 01:25:10;;;;;;;3.97;1.77;;;4.20;99.90;;;;;;5001904;28;20505;-60
2022/02/27 01:27:37;;;;;;;3.00;1.60;;;4.20;99.90;;;;;;5002870;28;20825;-60
2022/02/27 01:30:05;;;;;;;3.05;1.70;;;4.20;99.90;;;;;;4999744;28;20562;-61
2022/02/27 01:32:32;;;;;;;3.35;1.25;;;4.20;99.90;;;;;;5002163;28;20592;-60
2022/02/27 01:34:58;;;;;;;3.65;1.60;;;4.10;99.90;;;;;;5001646;28;20138;-60
2022/02/27 01:37:25;;;;;;;3.53;1.30;;;4.10;99.90;;;;;;5003470;28;20133;-61
2022/02/27 01:39:52;;;;;;;3.13;1.50;;;4.10;99.90;;;;;;5000782;28;20141;-60
2022/02/27 01:42:18;;;;;;;3.35;1.60;;;4.10;99.90;;;;;;5003501;28;20096;-61
2022/02/27 01:44:45;;;;;;;2.78;1.40;;;4.10;99.90;;;;;;4999350;28;20177;-58
2022/02/27 01:47:12;;;;;;;4.22;1.70;;;4.10;99.90;;;;;;5000958;28;20100;-60
2022/02/27 01:49:40;;;;;;;3.47;1.52;;;4.10;99.90;;;;;;5001354;28;20054;-60
2022/02/27 01:52:07;;;;;;;3.20;1.85;;;4.00;99.90;;;;;;5002622;28;20503;-61
2022/02/27 01:54:34;;;;;;;2.95;1.40;;;4.00;99.90;;;;;;5002114;28;20128;-60
2022/02/27 01:57:01;;;;;;;3.17;1.40;;;4.00;99.90;;;;;;4986010;28;20137;-61
2022/02/27 01:59:27;;;;;;;4.80;1.42;;;4.00;99.90;;;;;;4998639;28;20128;-61
2022/02/27 02:01:54;;;;;;;2.95;1.48;;;4.00;99.90;;;;;;5003436;28;20489;-61
2022/02/27 02:04:22;;;;;;;7.05;1.52;;;4.00;99.90;;;;;;5016552;28;20046;-61
2022/02/27 02:06:48;;;;;;;3.72;1.50;;;3.90;99.90;;;;;;5000610;28;20133;-61
2022/02/27 02:09:15;;;;;;;4.15;1.90;;;3.90;99.90;;;;;;5000171;28;20169;-60
2022/02/27 02:11:44;;;;;;;4.63;1.50;;;3.90;99.90;;;;;;5003213;28;20057;-61
2022/02/27 02:14:11;;;;;;;3.08;1.27;;;3.90;99.90;;;;;;4999940;28;20524;-60
2022/02/27 02:16:44;;;;;;;6.13;1.70;;;3.90;99.90;;;;;;5001790;28;20129;-61
2022/02/27 02:19:12;;;;;;;3.00;1.27;;;3.90;99.90;;;;;;4998385;28;20065;-60
2022/02/27 02:21:39;;;;;;;2.58;1.30;;;3.90;99.90;;;;;;5000370;28;20073;-61
2022/02/27 02:24:06;;;;;;;4.70;1.60;;;3.90;99.90;;;;;;5000508;28;20125;-60
2022/02/27 02:26:34;;;;;;;2.95;1.30;;;3.90;99.90;;;;;;5001884;28;20128;-60
2022/02/27 02:29:01;;;;;;;3.40;1.05;;;3.90;99.90;;;;;;4993737;28;20145;-60
2022/02/27 02:31:27;;;;;;;4.50;1.60;;;3.90;99.90;;;;;;5002808;28;20680;-61
2022/02/27 02:33:54;;;;;;;6.10;1.65;;;3.90;99.90;;;;;;5002766;28;20370;-60
2022/02/27 02:36:21;;;;;;;4.47;1.60;;;3.80;99.90;;;;;;5002722;28;20153;-60
2022/02/27 02:38:48;;;;;;;3.50;1.65;;;3.80;99.90;;;;;;5003155;28;20505;-60
2022/02/27 02:41:14;;;;;;;3.30;1.40;;;3.80;99.90;;;;;;5003959;28;20121;-60
2022/02/27 02:43:41;;;;;;;5.15;2.08;;;3.80;99.90;;;;;;5000516;28;20521;-59
2022/02/27 02:46:08;;;;;;;2.75;1.25;;;3.80;99.90;;;;;;5003107;28;20085;-61
2022/02/27 02:48:35;;;;;;;3.75;1.83;;;3.70;99.90;;;;;;5002991;28;20470;-60
2022/02/27 02:51:01;;;;;;;6.22;1.70;;;3.70;99.90;;;;;;4993886;28;20062;-61
2022/02/27 02:53:35;;;;;;;4.55;1.40;;;3.70;99.90;;;;;;5002171;28;20045;-60
2022/02/27 02:56:05;;;;;;;3.83;1.33;;;3.70;99.90;;;;;;5003061;28;20144;-61
2022/02/27 02:58:32;;;;;;;2.67;1.05;;;3.70;99.90;;;;;;5002213;28;20092;-60
2022/02/27 03:00:59;;;;;;;4.70;1.33;;;3.60;99.90;;;;;;5002191;28;20141;-60
2022/02/27 03:03:26;;;;;;;2.85;1.38;;;3.60;99.90;;;;;;5003167;28;20062;-60
2022/02/27 03:05:53;;;;;;;3.03;1.25;;;3.60;99.90;;;;;;5001915;28;20171;-61
2022/02/27 03:08:20;;;;;;;4.32;1.42;;;3.60;99.90;;;;;;5003018;28;20145;-61
2022/02/27 03:10:47;;;;;;;2.92;1.23;;;3.60;99.90;;;;;;5002753;28;20046;-62
2022/02/27 03:13:13;;;;;;;4.03;1.20;;;3.60;99.90;;;;;;5003007;28;20054;-61
2022/02/27 03:15:40;;;;;;;4.43;1.60;;;3.60;99.90;;;;;;4999874;28;20129;-61
2022/02/27 03:18:07;;;;;;;3.63;1.20;;;3.60;99.90;;;;;;4994761;28;20548;-61
2022/02/27 03:20:34;;;;;;;3.03;1.27;;;3.60;99.90;;;;;;5003287;28;20046;-60
2022/02/27 03:23:00;;;;;;;3.50;1.60;;;3.50;99.90;;;;;;5003359;28;20069;-60
2022/02/27 03:25:28;;;;;;;4.15;1.13;;;3.50;99.90;;;;;;5002508;28;20060;-60
2022/02/27 03:27:54;;;;;;;5.25;1.25;;;3.60;99.90;;;;;;5002629;28;20431;-60
2022/02/27 03:30:21;;;;;;;3.33;1.45;;;3.50;99.90;;;;;;5001094;28;20180;-60
2022/02/27 03:32:48;;;;;;;4.32;1.60;;;3.60;99.90;;;;;;5003217;28;20049;-60
2022/02/27 03:35:16;;;;;;;3.90;1.40;;;3.60;99.90;;;;;;5002618;28;20128;-61
2022/02/27 03:37:42;;;;;;;3.88;1.70;;;3.60;99.90;;;;;;5001427;28;20477;-60
2022/02/27 03:40:10;;;;;;;4.13;1.30;;;3.60;99.90;;;;;;5002212;28;20136;-60
2022/02/27 03:42:37;;;;;;;2.72;1.50;;;3.50;99.90;;;;;;5018551;28;20085;-60
2022/02/27 03:45:05;;;;;;;4.22;1.50;;;3.50;99.90;;;;;;5001464;28;20077;-60
2022/02/27 03:47:32;;;;;;;6.18;1.48;;;3.50;99.90;;;;;;5002579;28;20045;-61
2022/02/27 03:49:59;;;;;;;2.85;1.20;;;3.50;99.90;;;;;;5001832;28;20138;-61
2022/02/27 03:52:25;;;;;;;2.42;1.45;;;3.50;99.90;;;;;;5000621;28;20076;-60
2022/02/27 03:54:52;;;;;;;3.63;1.38;;;3.50;99.90;;;;;;5004553;28;20113;-61
2022/02/27 03:57:22;;;;;;;2.45;1.10;;;3.40;99.90;;;;;;5005598;28;20731;-59
2022/02/27 03:59:49;;;;;;;2.30;1.10;;;3.40;99.90;;;;;;4993693;28;20806;-60
2022/02/27 04:02:18;;;;;;;2.80;1.20;;;3.40;99.90;;;;;;5006756;28;20133;-59
2022/02/27 04:04:45;;;;;;;3.05;1.52;;;3.30;99.90;;;;;;5004400;28;20046;-61
2022/02/27 04:07:12;;;;;;;2.05;1.10;;;3.30;99.90;;;;;;5006721;28;20137;-62
2022/02/27 04:09:38;;;;;;;2.92;1.25;;;3.30;99.90;;;;;;5005519;28;20141;-60
2022/02/27 04:12:05;;;;;;;3.28;1.50;;;3.30;99.90;;;;;;5007384;28;20049;-60
2022/02/27 04:14:32;;;;;;;4.35;2.00;;;3.20;99.90;;;;;;5004456;28;20141;-60
2022/02/27 04:16:59;;;;;;;2.80;1.67;;;3.30;99.90;;;;;;5006049;28;20526;-61
2022/02/27 04:19:26;;;;;;;3.65;1.40;;;3.30;99.90;;;;;;5006189;28;20038;-61
2022/02/27 04:21:52;;;;;;;3.65;1.30;;;3.20;99.90;;;;;;5006754;28;20080;-61
2022/02/27 04:24:19;;;;;;;4.97;1.40;;;3.20;99.90;;;;;;5006012;28;20507;-60
2022/02/27 04:26:46;;;;;;;3.90;1.30;;;3.20;99.90;;;;;;5006453;28;20249;-60
2022/02/27 04:29:12;;;;;;;4.00;1.80;;;3.20;99.90;;;;;;5004181;28;20064;-60
2022/02/27 04:31:39;;;;;;;3.28;1.75;;;3.20;99.90;;;;;;5007167;28;20129;-60
2022/02/27 04:34:06;;;;;;;4.15;1.48;;;3.20;99.90;;;;;;5005846;28;20571;-60
2022/02/27 04:36:33;;;;;;;4.00;1.23;;;3.10;99.90;;;;;;5006141;28;20379;-60
2022/02/27 04:38:59;;;;;;;3.60;1.15;;;3.10;99.90;;;;;;5002743;28;20088;-61
2022/02/27 04:41:28;;;;;;;1.98;0.93;;;3.10;99.90;;;;;;4995073;28;20332;-61
2022/02/27 04:43:55;;;;;;;2.85;1.25;;;3.10;99.90;;;;;;5018692;28;20524;-58
2022/02/27 04:46:22;;;;;;;3.60;1.15;;;3.10;99.90;;;;;;5005921;28;20061;-60
2022/02/27 04:48:49;;;;;;;3.15;1.55;;;3.00;99.90;;;;;;5005534;28;20057;-60
2022/02/27 04:51:15;;;;;;;3.22;1.50;;;3.00;99.90;;;;;;5004771;28;20169;-61
2022/02/27 04:53:45;;;;;;;4.50;1.40;;;3.00;99.90;;;;;;5004059;28;20573;-60
2022/02/27 04:56:12;;;;;;;3.28;1.38;;;3.10;99.90;;;;;;5005849;28;20501;-61
2022/02/27 04:58:38;;;;;;;2.50;1.20;;;3.00;99.90;;;;;;4992411;28;20236;-60
2022/02/27 05:01:05;;;;;;;4.25;1.33;;;3.00;99.90;;;;;;5003974;28;20494;-61
2022/02/27 05:03:32;;;;;;;2.85;1.20;;;3.00;99.90;;;;;;5005677;28;20140;-60
2022/02/27 05:05:59;;;;;;;4.32;1.60;;;3.00;99.90;;;;;;5004496;28;20080;-62
2022/02/27 05:08:25;;;;;;;5.30;1.52;;;3.00;99.90;;;;;;5005120;28;20590;-60
2022/02/27 05:10:52;;;;;;;2.70;1.02;;;3.00;99.90;;;;;;5005108;28;20141;-62
2022/02/27 05:13:19;;;;;;;4.07;1.20;;;3.00;99.90;;;;;;5005134;28;20133;-60
2022/02/27 05:15:45;;;;;;;3.65;1.65;;;2.90;99.90;;;;;;5003289;28;20154;-61
2022/02/27 05:18:12;;;;;;;3.80;1.27;;;2.90;99.90;;;;;;5004990;28;20133;-60
2022/02/27 05:20:40;;;;;;;4.22;1.20;;;2.90;99.90;;;;;;5004962;28;20053;-60
2022/02/27 05:23:07;;;;;;;5.35;1.40;;;2.90;99.90;;;;;;5004969;28;20149;-62
2022/02/27 05:25:33;;;;;;;5.60;1.75;;;2.90;99.90;;;;;;5005138;28;20520;-61
2022/02/27 05:28:00;;;;;;;2.88;1.20;;;2.90;99.90;;;;;;5004899;28;20089;-60
2022/02/27 05:30:27;;;;;;;2.78;1.63;;;2.90;99.90;;;;;;5002487;28;20145;-61
2022/02/27 05:32:54;;;;;;;2.63;1.27;;;2.90;99.90;;;;;;5005293;28;20073;-60
2022/02/27 05:35:21;;;;;;;2.13;1.30;;;2.90;99.90;;;;;;5003406;28;20084;-60
2022/02/27 05:37:48;;;;;;;2.35;1.17;;;2.90;99.90;;;;;;5004783;28;20050;-60
2022/02/27 05:40:15;;;;;;;4.72;1.70;;;2.90;99.90;;;;;;5003869;28;20128;-60
2022/02/27 05:42:41;;;;;;;4.32;1.95;;;2.90;99.90;;;;;;5004608;28;20455;-60
2022/02/27 05:45:09;;;;;;;4.28;1.70;;;2.90;99.90;;;;;;5002079;28;20074;-60
2022/02/27 05:47:36;;;;;;;4.57;1.73;;;2.90;99.90;;;;;;5005007;28;20097;-61
2022/02/27 05:50:04;;;;;;;1.90;1.35;;;2.90;99.90;;;;;;5003959;28;20132;-60
2022/02/27 05:52:31;;;;;;;4.00;1.48;;;2.90;99.90;;;;;;5004613;28;20137;-61
2022/02/27 05:54:57;;;;;;;5.72;1.77;;;2.90;99.90;;;;;;5004445;28;20169;-61
2022/02/27 05:57:24;;;;;;;6.47;1.60;;;2.90;99.90;;;;;;5004599;28;20069;-60
2022/02/27 05:59:51;;;;;;;4.15;1.70;;;3.00;99.90;;;;;;5001133;28;20049;-61
2022/02/27 06:02:18;;;;;;;4.80;1.83;;;3.00;99.90;;;;;;5001479;28;20077;-61
2022/02/27 06:04:45;;;;;;;5.30;2.08;;;3.00;99.90;;;;;;5001773;28;20049;-61
2022/02/27 06:07:12;;;;;;;6.88;2.13;;;3.00;99.90;;;;;;5002456;28;20161;-60
2022/02/27 06:09:38;;;;;;;3.63;1.88;;;3.00;99.90;;;;;;5000261;28;20100;-61
2022/02/27 06:12:05;;;;;;;4.93;1.90;;;3.00;99.90;;;;;;4998721;28;20075;-61
2022/02/27 06:14:32;;;;;;;4.68;1.63;;;3.00;99.90;;;;;;4997875;28;20112;-61
2022/02/27 06:16:59;;;;;;;4.65;1.48;;;3.00;99.90;;;;;;5000206;28;20140;-61
2022/02/27 06:19:26;;;;;;;5.68;1.95;;;3.00;99.90;;;;;;4999489;28;20128;-61
2022/02/27 06:21:52;;;;;;;3.45;1.30;;;3.00;99.90;;;;;;4993352;28;20426;-61
2022/02/27 06:24:19;;;;;;;3.45;1.38;;;3.00;99.90;;;;;;4997784;28;20129;-60
2022/02/27 06:26:46;;;;;;;5.20;1.73;;;2.90;99.90;;;;;;5000305;28;20767;-61
2022/02/27 06:29:13;;;;;;;3.72;1.80;;;2.90;99.90;;;;;;4998122;28;20547;-61
2022/02/27 06:31:39;;;;;;;3.95;1.60;;;2.90;99.90;;;;;;5000074;28;20115;-61
2022/02/27 06:34:06;;;;;;;4.00;1.63;;;2.90;99.90;;;;;;4999057;28;20092;-61
2022/02/27 06:36:33;;;;;;;3.58;1.73;;;2.90;99.90;;;;;;5000038;28;20129;-62
2022/02/27 06:39:00;;;;;;;4.80;1.60;;;2.90;99.90;;;;;;4998369;28;20137;-61
2022/02/27 06:41:27;;;;;;;3.92;1.83;;;2.90;99.90;;;;;;4992895;28;20096;-61
2022/02/27 06:43:53;;;;;;;2.83;1.40;;;2.90;99.90;;;;;;4998199;28;20204;-62
2022/02/27 06:46:22;;;;;;;3.72;2.03;;;2.90;99.90;;;;;;4997140;28;20153;-62
2022/02/27 06:48:49;;;;;;;7.40;2.63;;;2.90;99.90;;;;;;4999067;28;20111;-60
2022/02/27 06:51:16;;;;;;;2.92;1.60;;;2.90;99.90;;;;;;4998498;28;20517;-62
2022/02/27 06:53:43;;;;;;;4.18;1.52;;;2.90;99.90;;;;;;4997947;28;20285;-62
2022/02/27 06:56:09;;;;;;;4.15;1.80;;;2.90;99.90;;;;;;4999784;28;20085;-61
2022/02/27 06:58:36;;;;;;;4.00;1.35;;;3.00;99.90;;;;;;4998247;28;20161;-61
2022/02/27 07:01:03;;;;;;;4.47;1.50;;;3.00;99.90;;;;;;4996677;28;20132;-61
2022/02/27 07:03:30;;;;;;;2.67;1.20;;;3.00;99.90;;;;;;4999444;28;20053;-62
2022/02/27 07:05:57;;;;;;;3.17;1.30;;;2.90;99.90;;;;;;4999109;28;20077;-61
2022/02/27 07:08:24;;;;;;;4.28;1.27;;;3.00;99.90;;;;;;4998680;28;20129;-61
2022/02/27 07:10:50;;;;;;;2.55;1.10;;;2.90;99.90;;;;;;4998549;28;20139;-61
2022/02/27 07:13:17;;;;;;;4.05;1.50;;;2.90;99.90;;;;;;4998467;28;20164;-61
2022/02/27 07:15:44;;;;;;;4.55;1.80;;;2.90;99.90;;;;;;4989634;28;20220;-61
2022/02/27 07:18:11;;;;;;;2.72;1.40;;;2.90;99.90;;;;;;4997508;28;20075;-60
2022/02/27 07:20:38;;;;;;;2.53;1.20;;;3.00;99.90;;;;;;4996232;28;20137;-61
2022/02/27 07:23:04;;;;;;;2.75;1.23;;;3.00;99.90;;;;;;4997243;28;20463;-60
2022/02/27 07:25:31;;;;;;;4.97;1.70;;;3.00;99.90;;;;;;4998399;28;20045;-63
2022/02/27 07:27:58;;;;;;;4.25;1.50;;;3.00;99.90;;;;;;5001342;28;20053;-62
2022/02/27 07:30:25;;;;;;;2.63;1.17;;;3.10;99.90;;;;;;4999042;28;20119;-63
2022/02/27 07:32:52;;;;;;;3.00;1.42;;;3.10;99.90;;;;;;4992465;28;20610;-63
2022/02/27 07:35:19;;;;;;;4.85;1.30;;;3.10;99.90;;;;;;4998933;28;20115;-63
2022/02/27 07:37:46;;;;;;;4.63;1.42;;;3.20;99.90;;;;;;4985471;28;20081;-62
2022/02/27 07:40:13;;;;;;;3.35;1.60;;;3.20;99.90;;;;;;4988263;28;20060;-60
2022/02/27 07:42:40;;;;;;;5.20;1.70;;;3.20;99.90;;;;;;4973919;28;20064;-63
2022/02/27 07:45:07;;;;;;;3.58;1.58;;;3.20;99.90;;;;;;4986590;28;20458;-60
2022/02/27 07:47:33;;;;;;;3.80;1.65;;;3.30;99.90;;;;;;4991567;28;20041;-60
2022/02/27 07:50:00;;;;;;;5.43;1.60;;;3.30;99.90;;;;;;4994372;28;20571;-60
2022/02/27 07:52:27;;;;;;;3.30;1.23;;;3.30;99.90;;;;;;4994294;28;20087;-63
2022/02/27 07:54:54;;;;;;;4.78;2.08;;;3.30;99.90;;;;;;4994186;28;20185;-63
2022/02/27 07:57:21;;;;;;;3.05;1.55;;;3.40;99.90;;;;;;4995151;28;20569;-63
2022/02/27 07:59:47;;;;;;;6.53;1.83;;;3.40;99.90;;;;;;4988374;28;20050;-63
2022/02/27 08:02:15;;;;;;;3.90;1.40;;;3.40;99.90;;;;;;4993348;28;20137;-62
2022/02/27 08:04:41;;;;;;;5.43;1.77;;;3.50;99.90;;;;;;4995435;28;20070;-61
2022/02/27 08:07:08;;;;;;;2.45;1.42;;;3.50;99.90;;;;;;4993712;28;20153;-59
2022/02/27 08:09:35;;;;;;;4.75;1.52;;;3.60;99.90;;;;;;4994658;28;20145;-61
2022/02/27 08:12:04;;;;;;;6.32;1.80;;;3.60;99.90;;;;;;4997031;28;20061;-60
2022/02/27 08:14:31;;;;;;;3.33;1.70;;;3.60;99.90;;;;;;4987376;28;20359;-61
2022/02/27 08:16:57;;;;;;;6.05;1.92;;;3.70;99.90;;;;;;4993373;28;20096;-62
2022/02/27 08:19:24;;;;;;;3.92;1.65;;;3.70;99.90;;;;;;4997802;28;20144;-61
2022/02/27 08:21:51;;;;;;;4.28;1.60;;;3.80;99.90;;;;;;4996043;28;20061;-61
2022/02/27 08:24:18;;;;;;;2.78;1.67;;;3.80;99.90;;;;;;4996603;28;20041;-61
2022/02/27 08:26:44;;;;;;;3.30;1.27;;;3.90;99.90;;;;;;4997610;28;20140;-61
2022/02/27 08:29:11;;;;;;;3.58;1.60;;;4.00;99.90;;;;;;4984632;28;20145;-61
2022/02/27 08:31:44;;;;;;;2.00;1.15;;;4.10;99.90;;;;;;4997155;28;20090;-61
2022/02/27 08:34:11;;;;;;;2.42;0.88;;;4.10;99.90;;;;;;4990171;28;20494;-61
2022/02/27 08:36:39;;;;;;;2.67;1.40;;;4.10;99.90;;;;;;4989264;28;20127;-61
2022/02/27 08:39:07;;;;;;;3.83;1.65;;;4.20;99.90;;;;;;4996012;28;20065;-61
2022/02/27 08:41:33;;;;;;;2.63;1.30;;;4.20;99.90;;;;;;4998412;28;20035;-61
2022/02/27 08:44:04;;;;;;;4.63;1.88;;;4.20;99.90;;;;;;4997221;28;20049;-60
2022/02/27 08:46:31;;;;;;;4.03;1.40;;;4.30;99.90;;;;;;4995525;28;20068;-61
2022/02/27 08:48:58;;;;;;;4.40;1.42;;;4.30;99.90;;;;;;4993327;28;20046;-61
2022/02/27 08:51:24;;;;;;;2.78;1.35;;;4.40;99.90;;;;;;4996059;28;20625;-60
2022/02/27 08:53:52;;;;;;;2.17;1.38;;;4.40;99.90;;;;;;4992871;28;20426;-60
2022/02/27 08:56:18;;;;;;;2.67;1.13;;;4.40;99.90;;;;;;4998051;28;20427;-60
2022/02/27 08:58:45;;;;;;;2.67;1.13;;;4.50;99.90;;;;;;4996462;28;20470;-60
2022/02/27 09:01:12;;;;;;;3.15;1.33;;;4.60;99.90;;;;;;5000165;28;20058;-62
2022/02/27 09:03:39;;;;;;;3.63;1.80;;;4.60;99.90;;;;;;4996391;28;20851;-60
2022/02/27 09:06:05;;;;;;;5.45;2.00;;;4.70;99.90;;;;;;4997741;28;20079;-60
2022/02/27 09:08:32;;;;;;;3.25;1.45;;;4.70;99.90;;;;;;4997921;28;20156;-61
2022/02/27 09:10:59;;;;;;;4.78;2.03;;;4.80;99.90;;;;;;4999262;28;20131;-61
2022/02/27 09:13:26;;;;;;;3.78;1.25;;;4.90;99.90;;;;;;4998979;28;20080;-60
2022/02/27 09:15:53;;;;;;;3.95;1.48;;;4.90;99.90;;;;;;4989963;28;20337;-61
2022/02/27 09:18:19;;;;;;;3.35;1.25;;;5.00;99.90;;;;;;4999188;28;20129;-61
2022/02/27 09:20:48;;;;;;;3.13;1.70;;;5.00;99.90;;;;;;4999274;28;20049;-61
2022/02/27 09:23:15;;;;;;;2.83;1.25;;;5.10;99.90;;;;;;4998785;28;20074;-60
2022/02/27 09:25:42;;;;;;;3.03;1.73;;;5.10;99.90;;;;;;4999668;28;20164;-61
2022/02/27 09:28:28;;;;;;;3.35;1.50;;;5.20;99.90;;;;;;4998656;28;20080;-60
2022/02/27 09:30:55;;;;;;;3.47;1.30;;;5.20;99.90;;;;;;4997741;28;20212;-61
2022/02/27 09:33:23;;;;;;;3.08;1.45;;;5.30;99.90;;;;;;4993969;28;20088;-61
2022/02/27 09:35:53;;;;;;;3.15;1.20;;;5.30;99.90;;;;;;4995054;28;20057;-61
2022/02/27 09:38:20;;;;;;;3.88;1.85;;;5.30;99.90;;;;;;4997827;28;20540;-60
2022/02/27 09:40:51;;;;;;;6.20;1.92;;;5.40;99.90;;;;;;4998353;28;20623;-61
2022/02/27 09:43:21;;;;;;;4.28;1.30;;;5.40;99.90;;;;;;4996518;28;20062;-61
2022/02/27 09:45:47;;;;;;;3.95;1.77;;;5.50;99.90;;;;;;4996863;28;20178;-61
2022/02/27 09:48:14;;;;;;;3.45;1.70;;;5.60;99.90;;;;;;4995987;28;20042;-62
2022/02/27 09:50:41;;;;;;;4.07;1.58;;;5.60;99.90;;;;;;4989485;28;20165;-61
2022/02/27 09:53:09;;;;;;;5.40;1.55;;;5.70;99.90;;;;;;5002561;28;20085;-60
2022/02/27 09:55:36;;;;;;;5.00;1.65;;;5.70;99.90;;;;;;4998519;28;20053;-61
2022/02/27 09:58:07;;;;;;;4.15;1.55;;;5.80;99.90;;;;;;4995650;28;20185;-61
2022/02/27 10:00:34;;;;;;;3.50;1.17;;;5.90;99.90;;;;;;4997112;28;20135;-60
2022/02/27 10:03:09;;;;;;;4.10;1.23;;;5.90;99.90;;;;;;5001355;28;20049;-61
2022/02/27 10:05:38;;;;;;;1.75;0.93;;;6.00;99.90;;;;;;5005892;28;20064;-61
2022/02/27 10:08:07;;;;;;;2.78;1.10;;;6.10;99.90;;;;;;4997492;28;20115;-61
2022/02/27 10:10:34;;;;;;;2.78;1.35;;;6.20;99.90;;;;;;5002972;28;20152;-61
2022/02/27 10:13:01;;;;;;;2.15;1.10;;;6.30;99.90;;;;;;5001961;28;20054;-62
2022/02/27 10:15:28;;;;;;;4.32;1.67;;;6.40;99.90;;;;;;5006204;28;20548;-62
2022/02/27 10:17:56;;;;;;;4.10;1.60;;;6.40;99.90;;;;;;5000022;28;20225;-62
2022/02/27 10:20:25;;;;;;;1.92;1.17;;;6.40;99.90;;;;;;5004678;28;20053;-61
2022/02/27 10:22:53;;;;;;;3.35;1.08;;;6.50;99.90;;;;;;5001271;28;20050;-62
2022/02/27 10:25:19;;;;;;;2.53;1.00;;;6.60;99.90;;;;;;5013906;28;20459;-62
2022/02/27 10:27:48;;;;;;;2.83;1.27;;;6.70;99.90;;;;;;4995331;28;20136;-62
2022/02/27 10:30:23;;;;;;;4.10;1.70;;;6.80;99.90;;;;;;5002462;28;20585;-62
2022/02/27 10:32:57;;;;;;;2.25;0.98;;;6.80;99.90;;;;;;5001979;28;20464;-62
2022/02/27 10:35:35;;;;;;;3.97;1.10;;;6.90;99.90;;;;;;5004825;28;20074;-62
2022/02/27 10:38:02;;;;;;;4.88;1.27;;;7.10;99.90;;;;;;5005545;28;20058;-62
2022/02/27 10:40:39;;;;;;;5.30;1.10;;;7.10;99.90;;;;;;5003782;28;20103;-61
2022/02/27 10:43:07;;;;;;;2.58;1.13;;;7.20;99.90;;;;;;5003619;28;20545;-62
2022/02/27 10:45:34;;;;;;;3.88;1.08;;;7.30;99.90;;;;;;5002926;28;20415;-62
2022/02/27 10:48:05;;;;;;;1.95;1.02;;;7.30;99.90;;;;;;5000862;28;20185;-62
2022/02/27 10:50:32;;;;;;;2.15;1.50;;;7.50;99.90;;;;;;5001556;28;20082;-61
2022/02/27 10:52:59;;;;;;;2.63;1.00;;;7.50;99.90;;;;;;5003514;28;20116;-63
2022/02/27 10:55:27;;;;;;;2.67;1.42;;;7.60;99.90;;;;;;5015081;28;20108;-62
2022/02/27 10:57:59;;;;;;;4.35;1.77;;;7.60;99.90;;;;;;4990553;28;20104;-61
2022/02/27 11:00:33;;;;;;;3.72;1.20;;;7.70;99.90;;;;;;4997835;28;20141;-62
2022/02/27 11:03:07;;;;;;;4.25;1.30;;;7.70;99.90;;;;;;4999924;28;20065;-61
2022/02/27 11:05:39;;;;;;;4.55;1.23;;;7.90;99.90;;;;;;4998957;28;20231;-61
2022/02/27 11:08:08;;;;;;;3.90;1.40;;;8.00;99.90;;;;;;4997993;28;20192;-61
2022/02/27 11:10:37;;;;;;;3.60;1.10;;;8.00;99.90;;;;;;4999140;28;20489;-61
2022/02/27 11:13:05;;;;;;;3.25;0.95;;;8.00;99.90;;;;;;4998634;28;20085;-61
2022/02/27 11:15:32;;;;;;;1.90;1.02;;;8.00;99.90;;;;;;4997962;28;20152;-61
2022/02/27 11:17:59;;;;;;;3.30;1.17;;;8.10;99.90;;;;;;4997609;28;20068;-62
2022/02/27 11:20:26;;;;;;;3.15;1.27;;;8.00;99.90;;;;;;4997519;28;20347;-61
2022/02/27 11:22:56;;;;;;;3.55;1.30;;;8.10;99.90;;;;;;4997651;28;20096;-61
2022/02/27 11:25:25;;;;;;;2.40;0.98;;;8.20;99.90;;;;;;4997530;28;20246;-61
2022/02/27 11:27:53;;;;;;;3.05;1.38;;;8.30;99.90;;;;;;4998990;28;20224;-61
2022/02/27 11:30:25;;;;;;;4.72;1.27;;;8.40;99.90;;;;;;4996677;28;20070;-61
2022/02/27 11:32:54;;;;;;;3.25;1.10;;;8.50;99.90;;;;;;4981001;28;20140;-62
2022/02/27 11:35:35;;;;;;;2.17;1.00;;;8.70;99.90;;;;;;5009771;28;20358;-61
2022/02/27 11:38:03;;;;;;;3.25;1.08;;;8.80;99.90;;;;;;5001280;28;20169;-61
2022/02/27 11:40:56;;;;;;;4.60;1.10;;;9.00;99.90;;;;;;4997102;28;20507;-61
2022/02/27 11:43:41;;;;;;;3.17;1.00;;;9.30;99.90;;;;;;4994577;28;20129;-61
2022/02/27 11:46:11;;;;;;;3.60;1.35;;;9.70;99.90;;;;;;4999238;28;20150;-62
2022/02/27 11:49:00;;;;;;;2.97;1.52;;;10.00;99.90;;;;;;4998850;28;20069;-61
2022/02/27 11:51:36;;;;;;;3.28;1.30;;;10.10;99.90;;;;;;4997780;28;20136;-62
2022/02/27 11:54:06;;;;;;;2.22;1.05;;;10.10;99.90;;;;;;4997890;28;20092;-61
2022/02/27 11:56:33;;;;;;;4.00;1.25;;;10.10;99.90;;;;;;4999130;28;20108;-62
2022/02/27 11:59:00;;;;;;;3.80;1.23;;;10.30;99.90;;;;;;4997296;28;20145;-62
2022/02/27 12:01:49;;;;;;;2.22;1.02;;;10.40;99.90;;;;;;4998986;28;20072;-62
2022/02/27 12:04:19;;;;;;;2.35;1.25;;;10.70;99.90;;;;;;4998775;28;20268;-62
2022/02/27 12:07:07;;;;;;;3.40;1.27;;;10.90;99.90;;;;;;4998505;28;20049;-62
2022/02/27 12:09:49;;;;;;;2.40;1.20;;;11.10;99.90;;;;;;4996672;28;20057;-62
2022/02/27 12:12:36;;;;;;;3.63;1.23;;;11.30;99.70;;;;;;4992837;28;20561;-62
2022/02/27 12:15:18;;;;;;;1.88;0.82;;;11.50;99.30;;;;;;4992722;28;20168;-62
2022/02/27 12:17:57;;;;;;;2.25;1.13;;;11.80;99.20;;;;;;4997062;28;20141;-62
2022/02/27 12:20:43;;;;;;;2.10;1.00;;;12.00;99.90;;;;;;4985831;28;20128;-62
2022/02/27 12:23:34;;;;;;;3.88;1.85;;;12.30;99.90;;;;;;4989621;28;20050;-61
2022/02/27 12:26:43;;;;;;;2.85;1.27;;;12.60;99.90;;;;;;4999591;28;20165;-62
2022/02/27 12:29:21;;;;;;;2.38;1.15;;;12.80;99.20;;;;;;4981163;28;20050;-61
2022/02/27 12:31:48;;;;;;;2.10;1.00;;;12.90;97.10;;;;;;4995902;28;20050;-62
2022/02/27 12:34:18;;;;;;;2.13;1.48;;;13.00;97.90;;;;;;4997340;28;20100;-62
2022/02/27 12:36:49;;;;;;;2.58;1.30;;;13.10;98.20;;;;;;5001962;28;20220;-62
2022/02/27 12:39:16;;;;;;;2.60;1.23;;;13.40;97.90;;;;;;4996219;28;20137;-61
2022/02/27 12:41:44;;;;;;;1.70;0.95;;;13.60;96.20;;;;;;5000397;28;20093;-62
2022/02/27 12:44:24;;;;;;;2.38;1.00;;;13.80;97.20;;;;;;4992101;28;20493;-61
2022/02/27 12:46:52;;;;;;;2.10;1.00;;;14.10;96.00;;;;;;5001558;28;20462;-62
2022/02/27 12:52:15;;;;;;;4.95;1.20;;;14.90;94.70;;;;;;5001144;28;20402;-62
2022/02/27 12:54:47;;;;;;;1.40;1.08;;;15.10;94.80;;;;;;4991559;28;20060;-63
2022/02/27 12:57:15;;;;;;;2.53;1.20;;;15.10;94.40;;;;;;4990906;28;20073;-62
2022/02/27 12:59:43;;;;;;;2.22;1.10;;;15.20;94.60;;;;;;4994770;28;20156;-62
2022/02/27 13:02:14;;;;;;;1.50;0.88;;;15.20;92.20;;;;;;4991455;28;20058;-62
2022/02/27 13:04:42;;;;;;;1.60;0.90;;;15.30;91.30;;;;;;5000517;28;20580;-62